createdAt,value
2022-10-01T00:03:01.717Z,98.48
2022-10-01T00:06:11.420Z,98.56
2022-10-01T00:09:13.845Z,98.24
2022-10-01T00:12:16.758Z,97.26
2022-10-01T00:15:21.821Z,97.90
2022-10-01T00:18:24.363Z,97.41
2022-10-01T00:21:30.117Z,97.39
2022-10-01T00:24:32.605Z,98.25
2022-10-01T00:27:36.030Z,97.55
2022-10-01T00:30:40.509Z,97.44
2022-10-01T00:33:43.498Z,97.88
2022-10-01T00:36:45.960Z,97.57
2022-10-01T00:39:48.338Z,97.79
2022-10-01T00:42:50.863Z,97.65
2022-10-01T00:45:57.547Z,97.65
2022-10-01T00:49:10.494Z,97.69
2022-10-01T00:52:18.310Z,97.79
2022-10-01T00:55:34.161Z,97.66
2022-10-01T00:58:36.603Z,97.68
2022-10-01T01:01:39.468Z,97.53
2022-10-01T01:04:43.295Z,98.75
2022-10-01T01:07:49.640Z,98.52
2022-10-01T01:11:13.956Z,98.51
2022-10-01T01:14:30.067Z,98.45
2022-10-01T01:17:40.530Z,98.25
2022-10-01T01:21:04.753Z,98.00
2022-10-01T01:24:31.484Z,98.21
2022-10-01T01:27:54.782Z,97.89
2022-10-01T01:31:01.361Z,98.40
2022-10-01T01:34:08.598Z,98.62
2022-10-01T01:37:14.744Z,98.20
2022-10-01T01:40:19.515Z,97.98
2022-10-01T01:43:29.520Z,97.60
2022-10-01T01:46:36.321Z,97.94
2022-10-01T01:49:39.722Z,98.38
2022-10-01T01:52:42.188Z,98.26
2022-10-01T01:55:46.019Z,98.54
2022-10-01T01:58:49.240Z,98.19
2022-10-01T02:01:56.617Z,98.25
2022-10-01T02:05:10.499Z,97.62
2022-10-01T02:08:30.886Z,97.38
2022-10-01T02:11:40.687Z,97.70
2022-10-01T02:14:51.472Z,98.07
2022-10-01T02:18:05.059Z,98.83
2022-10-01T02:21:16.881Z,99.49
2022-10-01T02:24:33.280Z,98.95
2022-10-01T02:27:40.869Z,98.86
2022-10-01T02:30:45.175Z,98.81
2022-10-01T02:33:48.992Z,98.69
2022-10-01T02:36:53.514Z,98.50
2022-10-01T02:39:57.657Z,98.34
2022-10-01T02:43:07.728Z,98.45
2022-10-01T02:46:45.431Z,98.08
2022-10-01T02:49:49.107Z,98.42
2022-10-01T02:53:09.759Z,98.22
2022-10-01T02:56:14.850Z,98.30
2022-10-01T02:59:17.231Z,98.50
2022-10-01T03:02:20.204Z,98.71
2022-10-01T03:05:22.708Z,98.90
2022-10-01T03:08:25.174Z,98.89
2022-10-01T03:11:27.585Z,99.11
2022-10-01T03:14:30.016Z,98.99
2022-10-01T03:17:32.440Z,98.81
2022-10-01T03:20:34.852Z,98.70
2022-10-01T03:23:37.250Z,98.69
2022-10-01T03:26:39.758Z,98.68
2022-10-01T03:29:43.294Z,98.35
2022-10-01T03:32:47.708Z,98.24
2022-10-01T03:35:51.034Z,97.59
2022-10-01T03:38:53.556Z,98.31
2022-10-01T03:41:56.000Z,98.71
2022-10-01T03:44:58.414Z,98.70
2022-10-01T03:48:00.815Z,98.64
2022-10-01T03:51:03.514Z,98.65
2022-10-01T03:54:06.998Z,98.51
2022-10-01T03:57:09.167Z,98.88
2022-10-01T04:00:13.989Z,99.09
2022-10-01T04:03:16.720Z,98.78
2022-10-01T04:06:19.407Z,99.33
2022-10-01T04:09:21.587Z,99.63
2022-10-01T04:12:23.784Z,99.99
2022-10-01T04:15:26.164Z,99.09
2022-10-01T04:18:28.595Z,99.00
2022-10-01T04:21:31.166Z,98.90
2022-10-01T04:24:36.547Z,99.07
2022-10-01T04:27:43.044Z,98.85
2022-10-01T04:30:46.297Z,98.76
2022-10-01T04:33:48.696Z,98.64
2022-10-01T04:36:50.856Z,98.55
2022-10-01T04:39:53.268Z,98.46
2022-10-01T04:42:55.476Z,98.84
2022-10-01T04:45:57.725Z,99.03
2022-10-01T04:49:01.100Z,98.78
2022-10-01T04:52:04.224Z,98.87
2022-10-01T04:55:09.620Z,98.41
2022-10-01T04:58:11.791Z,98.44
2022-10-01T05:01:13.995Z,98.53
2022-10-01T05:04:16.208Z,98.70
2022-10-01T05:07:19.455Z,98.63
2022-10-01T05:10:23.053Z,98.65
2022-10-01T05:13:30.372Z,99.02
2022-10-01T05:16:33.037Z,99.05
2022-10-01T05:19:35.257Z,98.61
2022-10-01T05:22:37.961Z,98.55
2022-10-01T05:25:40.550Z,98.36
2022-10-01T05:28:44.658Z,98.07
2022-10-01T05:31:49.446Z,97.92
2022-10-01T05:34:53.711Z,97.46
2022-10-01T05:38:00.563Z,97.58
2022-10-01T05:41:05.856Z,97.42
2022-10-01T05:44:08.066Z,97.22
2022-10-01T05:47:10.247Z,97.51
2022-10-01T05:50:18.699Z,97.55
2022-10-01T05:53:22.384Z,97.55
2022-10-01T05:56:26.138Z,97.60
2022-10-01T05:59:31.681Z,97.71
2022-10-01T06:02:34.363Z,96.99
2022-10-01T06:05:36.928Z,96.81
2022-10-01T06:08:39.128Z,96.63
2022-10-01T06:11:42.111Z,96.33
2022-10-01T06:14:44.272Z,96.01
2022-10-01T06:17:46.923Z,95.41
2022-10-01T06:20:49.108Z,94.61
2022-10-01T06:23:52.327Z,92.95
2022-10-01T06:26:54.478Z,92.99
2022-10-01T06:29:56.715Z,92.56
2022-10-01T06:33:11.617Z,92.45
2022-10-01T06:36:13.809Z,90.73
2022-10-01T06:39:16.059Z,89.25
2022-10-01T06:42:18.232Z,88.16
2022-10-01T06:45:20.435Z,87.30
2022-10-01T06:48:22.956Z,87.87
2022-10-01T06:51:45.073Z,88.55
2022-10-01T06:54:47.293Z,88.76
2022-10-01T06:57:54.865Z,89.93
2022-10-01T07:01:01.455Z,90.24
2022-10-01T07:04:03.805Z,91.23
2022-10-01T07:07:07.258Z,91.70
2022-10-01T07:10:10.691Z,91.97
2022-10-01T07:13:20.914Z,92.71
2022-10-01T07:16:23.304Z,92.81
2022-10-01T07:19:25.518Z,92.84
2022-10-01T07:22:27.819Z,93.15
2022-10-01T07:25:30.083Z,92.96
2022-10-01T07:28:32.235Z,93.88
2022-10-01T07:31:34.818Z,93.91
2022-10-01T07:34:42.583Z,92.88
2022-10-01T07:37:44.773Z,91.78
2022-10-01T07:40:54.786Z,92.10
2022-10-01T07:43:57.636Z,92.58
2022-10-01T07:47:00.235Z,92.63
2022-10-01T07:50:02.616Z,92.98
2022-10-01T07:53:04.788Z,92.54
2022-10-01T07:56:06.971Z,92.16
2022-10-01T07:59:10.730Z,91.50
2022-10-01T08:02:17.726Z,90.53
2022-10-01T08:05:22.012Z,90.07
2022-10-01T08:08:24.228Z,87.48
2022-10-01T08:11:26.441Z,85.92
2022-10-01T08:14:30.308Z,86.32
2022-10-01T08:17:34.247Z,87.03
2022-10-01T08:20:39.358Z,85.45
2022-10-01T08:23:41.553Z,84.84
2022-10-01T08:26:43.854Z,84.48
2022-10-01T08:29:46.008Z,83.07
2022-10-01T08:32:48.246Z,79.80
2022-10-01T08:35:50.729Z,81.01
2022-10-01T08:38:52.943Z,80.64
2022-10-01T08:42:15.109Z,80.18
2022-10-01T08:45:43.151Z,72.05
2022-10-01T08:49:09.747Z,67.70
2022-10-01T08:52:26.341Z,62.20
2022-10-01T08:55:36.303Z,64.50
2022-10-01T08:58:45.749Z,67.64
2022-10-01T09:01:49.170Z,68.12
2022-10-01T09:05:04.091Z,69.21
2022-10-01T09:08:09.662Z,71.59
2022-10-01T09:11:21.775Z,72.40
2022-10-01T09:14:30.147Z,72.54
2022-10-01T09:17:54.578Z,72.91
2022-10-01T09:20:58.690Z,72.93
2022-10-01T09:24:04.672Z,73.21
2022-10-01T09:27:25.509Z,75.06
2022-10-01T09:30:29.264Z,74.63
2022-10-01T09:33:35.308Z,77.60
2022-10-01T09:37:05.541Z,78.45
2022-10-01T09:40:34.222Z,78.61
2022-10-01T09:43:41.050Z,79.85
2022-10-01T09:46:46.159Z,79.76
2022-10-01T09:49:50.080Z,81.99
2022-10-01T09:52:53.702Z,82.40
2022-10-01T09:56:05.094Z,83.07
2022-10-01T09:59:21.262Z,83.23
2022-10-01T10:02:28.624Z,85.70
2022-10-01T10:05:41.882Z,88.22
2022-10-01T10:08:45.550Z,88.20
2022-10-01T10:11:49.152Z,85.79
2022-10-01T10:14:51.367Z,88.41
2022-10-01T10:17:55.784Z,87.23
2022-10-01T10:20:59.364Z,87.30
2022-10-01T10:24:04.569Z,88.57
2022-10-01T10:27:21.744Z,89.13
2022-10-01T10:30:24.810Z,89.55
2022-10-01T10:33:27.390Z,87.87
2022-10-01T10:36:32.743Z,88.29
2022-10-01T10:39:37.851Z,90.10
2022-10-01T10:42:47.915Z,89.88
2022-10-01T10:45:56.917Z,89.56
2022-10-01T10:49:07.526Z,88.73
2022-10-01T10:52:36.856Z,88.88
2022-10-01T10:55:39.187Z,87.81
2022-10-01T10:58:42.540Z,86.29
2022-10-01T11:01:47.419Z,85.13
2022-10-01T11:04:50.058Z,84.42
2022-10-01T11:07:56.439Z,84.85
2022-10-01T11:11:17.213Z,86.03
2022-10-01T11:14:37.572Z,86.44
2022-10-01T11:18:16.289Z,87.20
2022-10-01T11:21:22.189Z,87.52
2022-10-01T11:24:42.364Z,86.96
2022-10-01T11:28:15.664Z,87.48
2022-10-01T11:31:36.266Z,86.03
2022-10-01T11:34:55.708Z,86.31
2022-10-01T11:38:09.663Z,86.89
2022-10-01T11:41:19.182Z,87.86
2022-10-01T11:44:39.397Z,87.25
2022-10-01T11:47:47.380Z,87.27
2022-10-01T11:50:53.143Z,87.24
2022-10-01T11:54:03.844Z,88.07
2022-10-01T11:57:33.092Z,89.87
2022-10-01T12:00:38.475Z,90.39
2022-10-01T12:04:01.260Z,91.09
2022-10-01T12:07:20.586Z,90.30
2022-10-01T12:11:13.205Z,89.23
2022-10-01T12:14:38.521Z,88.73
2022-10-01T12:17:49.152Z,89.72
2022-10-01T12:20:57.640Z,89.93
2022-10-01T12:24:20.609Z,89.60
2022-10-01T12:27:48.037Z,90.53
2022-10-01T12:30:58.988Z,90.63
2022-10-01T12:34:04.172Z,90.84
2022-10-01T12:37:12.871Z,90.19
2022-10-01T12:40:27.997Z,91.13
2022-10-01T12:43:42.171Z,91.41
2022-10-01T12:46:50.327Z,91.57
2022-10-01T12:50:20.561Z,92.26
2022-10-01T12:53:45.330Z,92.15
2022-10-01T12:57:11.511Z,91.76
2022-10-01T13:00:19.414Z,91.44
2022-10-01T13:03:31.829Z,90.42
2022-10-01T13:06:56.805Z,89.68
2022-10-01T13:10:20.034Z,87.98
2022-10-01T13:13:32.931Z,86.64
2022-10-01T13:16:45.315Z,86.86
2022-10-01T13:19:55.283Z,86.59
2022-10-01T13:23:25.861Z,84.69
2022-10-01T13:26:53.776Z,84.08
2022-10-01T13:30:16.532Z,84.58
2022-10-01T13:33:24.564Z,74.82
2022-10-01T13:36:33.944Z,66.84
2022-10-01T13:39:39.487Z,61.97
2022-10-01T13:42:45.972Z,59.08
2022-10-01T13:45:53.031Z,59.40
2022-10-01T13:48:56.070Z,55.96
2022-10-01T13:51:59.070Z,59.82
2022-10-01T13:55:02.203Z,59.25
2022-10-01T13:58:05.699Z,57.46
2022-10-01T14:01:28.995Z,55.21
2022-10-01T14:04:43.572Z,57.67
2022-10-01T14:07:50.325Z,64.30
2022-10-01T14:11:28.121Z,69.01
2022-10-01T14:14:58.391Z,69.40
2022-10-01T14:18:06.341Z,70.74
2022-10-01T14:21:28.529Z,68.42
2022-10-01T14:24:39.681Z,61.95
2022-10-01T14:27:44.766Z,60.10
2022-10-01T14:30:53.017Z,60.18
2022-10-01T14:33:55.198Z,62.19
2022-10-01T14:36:58.099Z,62.37
2022-10-01T14:40:21.893Z,61.97
2022-10-01T14:43:27.678Z,60.00
2022-10-01T14:46:30.089Z,60.87
2022-10-01T14:49:33.343Z,61.94
2022-10-01T14:52:37.572Z,63.25
2022-10-01T14:55:39.784Z,64.71
2022-10-01T14:58:46.412Z,64.62
2022-10-01T15:02:01.403Z,62.17
2022-10-01T15:05:26.160Z,65.58
2022-10-01T15:08:45.737Z,66.19
2022-10-01T15:11:51.139Z,66.58
2022-10-01T15:14:54.296Z,67.28
2022-10-01T15:17:56.507Z,69.95
2022-10-01T15:21:00.129Z,72.05
2022-10-01T15:24:04.581Z,73.27
2022-10-01T15:27:11.656Z,74.70
2022-10-01T15:30:18.371Z,76.97
2022-10-01T15:33:46.900Z,80.23
2022-10-01T15:36:50.041Z,81.52
2022-10-01T15:39:53.848Z,82.87
2022-10-01T15:43:07.959Z,83.34
2022-10-01T15:46:22.218Z,84.19
2022-10-01T15:49:24.993Z,84.39
2022-10-01T15:52:46.428Z,84.87
2022-10-01T15:55:52.392Z,85.79
2022-10-01T15:59:10.044Z,86.11
2022-10-01T16:02:20.064Z,87.08
2022-10-01T16:05:26.681Z,87.62
2022-10-01T16:08:34.428Z,87.89
2022-10-01T16:11:56.707Z,87.67
2022-10-01T16:15:00.648Z,87.75
2022-10-01T16:18:02.878Z,87.98
2022-10-01T16:21:06.571Z,87.78
2022-10-01T16:24:29.392Z,88.23
2022-10-01T16:27:34.439Z,88.37
2022-10-01T16:30:51.310Z,88.48
2022-10-01T16:33:53.478Z,89.03
2022-10-01T16:36:55.694Z,89.14
2022-10-01T16:39:57.860Z,89.41
2022-10-01T16:43:00.810Z,89.37
2022-10-01T16:46:03.059Z,89.61
2022-10-01T16:49:12.185Z,89.83
2022-10-01T16:52:16.678Z,89.79
2022-10-01T16:55:23.081Z,90.19
2022-10-01T16:58:25.357Z,90.73
2022-10-01T17:01:28.768Z,90.87
2022-10-01T17:04:34.122Z,90.95
2022-10-01T17:07:36.405Z,91.23
2022-10-01T17:10:53.725Z,91.58
2022-10-01T17:13:56.140Z,91.49
2022-10-01T17:16:58.413Z,91.72
2022-10-01T17:20:00.697Z,91.83
2022-10-01T17:23:03.063Z,92.28
2022-10-01T17:26:07.326Z,92.42
2022-10-01T17:29:09.943Z,92.60
2022-10-01T17:32:12.380Z,92.75
2022-10-01T17:35:16.715Z,92.98
2022-10-01T17:38:19.568Z,93.13
2022-10-01T17:41:21.781Z,93.48
2022-10-01T17:44:23.937Z,93.66
2022-10-01T17:47:26.152Z,93.94
2022-10-01T17:50:28.352Z,94.27
2022-10-01T17:53:36.158Z,94.60
2022-10-01T17:56:44.205Z,94.75
2022-10-01T17:59:46.438Z,95.03
2022-10-01T18:02:48.687Z,95.45
2022-10-01T18:05:51.982Z,95.71
2022-10-01T18:08:55.990Z,95.72
2022-10-01T18:11:58.760Z,96.20
2022-10-01T18:15:01.594Z,96.32
2022-10-01T18:21:27.694Z,96.52
2022-10-01T18:24:30.108Z,96.59
2022-10-01T18:27:35.526Z,96.90
2022-10-01T18:30:37.788Z,96.93
2022-10-01T18:33:55.151Z,96.96
2022-10-01T18:37:26.569Z,97.41
2022-10-01T18:40:36.709Z,97.51
2022-10-01T18:43:40.721Z,97.26
2022-10-01T18:46:49.676Z,97.32
2022-10-01T18:50:03.034Z,97.50
2022-10-01T18:53:19.466Z,97.63
2022-10-01T18:56:31.778Z,97.63
2022-10-01T18:59:52.338Z,97.85
2022-10-01T19:03:17.064Z,97.82
2022-10-01T19:06:22.192Z,97.74
2022-10-01T19:09:51.959Z,97.65
2022-10-01T19:13:13.871Z,97.42
2022-10-01T19:16:16.096Z,96.95
2022-10-01T19:19:21.217Z,95.78
2022-10-01T19:22:45.073Z,95.91
2022-10-01T19:26:09.851Z,95.91
2022-10-01T19:29:22.212Z,96.23
2022-10-01T19:32:29.347Z,96.20
2022-10-01T19:35:38.032Z,94.38
2022-10-01T19:38:42.416Z,94.07
2022-10-01T19:41:51.566Z,94.22
2022-10-01T19:45:04.710Z,94.17
2022-10-01T19:48:42.179Z,94.55
2022-10-01T19:51:56.038Z,94.76
2022-10-01T19:55:00.745Z,94.62
2022-10-01T19:58:13.887Z,94.94
2022-10-01T20:01:20.789Z,95.64
2022-10-01T20:04:35.403Z,96.23
2022-10-01T20:08:14.712Z,96.03
2022-10-01T20:11:31.014Z,95.41
2022-10-01T20:15:12.536Z,94.46
2022-10-01T20:18:14.755Z,93.77
2022-10-01T20:21:28.712Z,92.80
2022-10-01T20:24:58.978Z,91.79
2022-10-01T20:28:19.363Z,91.25
2022-10-01T20:31:29.699Z,90.22
2022-10-01T20:35:02.420Z,90.21
2022-10-01T20:38:15.105Z,88.63
2022-10-01T20:41:20.284Z,88.74
2022-10-01T20:44:29.185Z,87.78
2022-10-01T20:47:46.716Z,88.55
2022-10-01T20:50:54.459Z,88.96
2022-10-01T20:54:12.440Z,89.07
2022-10-01T20:57:33.943Z,88.93
2022-10-01T21:00:38.391Z,89.14
2022-10-01T21:03:44.444Z,88.29
2022-10-01T21:06:54.965Z,86.75
2022-10-01T21:10:03.769Z,88.44
2022-10-01T21:13:21.684Z,87.75
2022-10-01T21:16:45.943Z,87.36
2022-10-01T21:20:06.489Z,87.01
2022-10-01T21:23:22.568Z,86.82
2022-10-01T21:26:41.443Z,87.39
2022-10-01T21:30:11.076Z,87.11
2022-10-01T21:33:19.348Z,87.28
2022-10-01T21:36:25.828Z,88.89
2022-10-01T21:39:48.322Z,87.68
2022-10-01T21:42:53.121Z,88.85
2022-10-01T21:46:22.471Z,89.31
2022-10-01T21:49:58.081Z,88.46
2022-10-01T21:53:34.108Z,88.62
2022-10-01T21:56:59.921Z,88.71
2022-10-01T22:00:28.642Z,88.09
2022-10-01T22:03:38.560Z,88.16
2022-10-01T22:06:51.277Z,88.44
2022-10-01T22:10:14.754Z,88.87
2022-10-01T22:13:28.023Z,88.99
2022-10-01T22:16:40.992Z,89.09
2022-10-01T22:19:49.072Z,89.29
2022-10-01T22:22:57.321Z,89.51
2022-10-01T22:26:06.273Z,89.54
2022-10-01T22:29:18.924Z,88.76
2022-10-01T22:32:23.437Z,89.17
2022-10-01T22:35:30.963Z,89.77
2022-10-01T22:38:40.396Z,90.56
2022-10-01T22:41:47.437Z,90.19
2022-10-01T22:44:49.609Z,90.06
2022-10-01T22:48:33.764Z,89.12
2022-10-01T22:51:58.743Z,89.11
2022-10-01T22:55:25.663Z,88.22
2022-10-01T22:58:43.822Z,88.18
2022-10-01T23:02:00.617Z,88.99
2022-10-01T23:05:11.222Z,89.16
2022-10-01T23:08:31.299Z,89.19
2022-10-01T23:11:38.973Z,90.39
2022-10-01T23:14:55.876Z,91.54
2022-10-01T23:18:24.874Z,90.74
2022-10-01T23:21:45.813Z,90.87
2022-10-01T23:25:16.334Z,91.21
2022-10-01T23:28:45.413Z,91.78
2022-10-01T23:32:13.138Z,91.07
2022-10-01T23:36:01.087Z,91.62
2022-10-01T23:39:37.556Z,92.36
2022-10-01T23:42:45.910Z,91.91
2022-10-01T23:45:56.724Z,92.58
2022-10-01T23:49:28.172Z,94.19
2022-10-01T23:52:47.383Z,95.10
2022-10-01T23:56:20.025Z,96.01
2022-10-01T23:59:40.393Z,95.74
